Map

Track Data

SID SEASON NUMBER BASIN SUBBASIN NAME ISO_TIME NATURE LAT LON WMO_WIND WMO_PRES WMO_AGENCY TRACK_TYPE DIST2LAND LANDFALL IFLAG USA_AGENCY USA_ATCF_ID USA_LAT USA_LON USA_RECORD USA_STATUS USA_WIND USA_PRES USA_SSHS USA_R34_NE USA_R34_SE USA_R34_SW USA_R34_NW USA_R50_NE USA_R50_SE USA_R50_SW USA_R50_NW USA_R64_NE USA_R64_SE USA_R64_SW USA_R64_NW USA_POCI USA_ROCI USA_RMW USA_EYE TOKYO_LAT TOKYO_LON TOKYO_GRADE TOKYO_WIND TOKYO_PRES TOKYO_R50_DIR TOKYO_R50_LONG TOKYO_R50_SHORT TOKYO_R30_DIR TOKYO_R30_LONG TOKYO_R30_SHORT TOKYO_LAND CMA_LAT CMA_LON CMA_CAT CMA_WIND CMA_PRES HKO_LAT HKO_LON HKO_CAT HKO_WIND HKO_PRES NEWDELHI_LAT NEWDELHI_LON NEWDELHI_GRADE NEWDELHI_WIND NEWDELHI_PRES NEWDELHI_CI NEWDELHI_DP NEWDELHI_POCI REUNION_LAT REUNION_LON REUNION_TYPE REUNION_WIND REUNION_PRES REUNION_TNUM REUNION_CI REUNION_RMW REUNION_R34_NE REUNION_R34_SE REUNION_R34_SW REUNION_R34_NW REUNION_R50_NE REUNION_R50_SE REUNION_R50_SW REUNION_R50_NW REUNION_R64_NE REUNION_R64_SE REUNION_R64_SW REUNION_R64_NW BOM_LAT BOM_LON BOM_TYPE BOM_WIND BOM_PRES BOM_TNUM BOM_CI BOM_RMW BOM_R34_NE BOM_R34_SE BOM_R34_SW BOM_R34_NW BOM_R50_NE BOM_R50_SE BOM_R50_SW BOM_R50_NW BOM_R64_NE BOM_R64_SE BOM_R64_SW BOM_R64_NW BOM_ROCI BOM_POCI BOM_EYE BOM_POS_METHOD BOM_PRES_METHOD NADI_LAT NADI_LON NADI_CAT NADI_WIND NADI_PRES WELLINGTON_LAT WELLINGTON_LON WELLINGTON_WIND WELLINGTON_PRES DS824_LAT DS824_LON DS824_STAGE DS824_WIND DS824_PRES TD9636_LAT TD9636_LON TD9636_STAGE TD9636_WIND TD9636_PRES TD9635_LAT TD9635_LON TD9635_WIND TD9635_PRES TD9635_ROCI NEUMANN_LAT NEUMANN_LON NEUMANN_CLASS NEUMANN_WIND NEUMANN_PRES MLC_LAT MLC_LON MLC_CLASS MLC_WIND MLC_PRES USA_GUST BOM_GUST BOM_GUST_PER REUNION_GUST REUNION_GUST_PER USA_SEAHGT USA_SEARAD_NE USA_SEARAD_SE USA_SEARAD_SW USA_SEARAD_NW STORM_SPEED STORM_DIR
1995247N05144 1995 60 WP MM NOT_NAMED 1995-09-03 12:00:00 NR 4.50000 144.100 main 790 790 O_____________ jtwc_wp WP161995 4.50000 144.100 15 -1 10 281
1995247N05144 1995 60 WP MM NOT_NAMED 1995-09-03 15:00:00 NR 4.59001 143.633 main 821 821 P_____________ WP161995 4.59001 143.633 15 -1 10 281
1995247N05144 1995 60 WP MM NOT_NAMED 1995-09-03 18:00:00 NR 4.70000 143.100 main 846 839 O_____________ jtwc_wp WP161995 4.70000 143.100 15 -1 12 282
1995247N05144 1995 60 WP MM NOT_NAMED 1995-09-03 21:00:00 NR 4.84252 142.465 main 839 835 P_____________ WP161995 4.84252 142.465 15 -1 13 283
1995247N05144 1995 60 WP MM NOT_NAMED 1995-09-04 00:00:00 NR 5.00000 141.800 main 836 821 O_____________ jtwc_wp WP161995 5.00000 141.800 15 -1 13 284
1995247N05144 1995 60 WP MM NOT_NAMED 1995-09-04 03:00:00 NR 5.15738 141.207 main 831 815 P_____________ WP161995 5.15738 141.207 15 -1 12 284
1995247N05144 1995 60 WP MM NOT_NAMED 1995-09-04 06:00:00 NR 5.30000 140.600 main 817 804 O_____________ jtwc_wp WP161995 5.30000 140.600 15 -1 13 280
1995247N05144 1995 60 WP MM NOT_NAMED 1995-09-04 09:00:00 NR 5.39256 139.885 main 806 795 P_____________ WP161995 5.39256 139.885 15 -1 14 278
1995247N05144 1995 60 WP MM NOT_NAMED 1995-09-04 12:00:00 NR 5.50000 139.200 main 795 785 O_____________ jtwc_wp WP161995 5.50000 139.200 15 -1 12 284
1995247N05144 1995 60 WP MM NOT_NAMED 1995-09-04 15:00:00 NR 5.69233 138.685 main 792 786 P_____________ WP161995 5.69233 138.685 17 -1 11 292
1995247N05144 1995 60 WP MM NOT_NAMED 1995-09-04 18:00:00 NR 5.90000 138.200 main 793 786 O_____________ jtwc_wp WP161995 5.90000 138.200 20 -1 11 289
1995247N05144 1995 60 WP MM NOT_NAMED 1995-09-04 21:00:00 NR 6.06503 137.600 main 793 785 P_____________ WP161995 6.06503 137.600 20 -1 12 284
1995247N05144 1995 60 WP MM NOT_NAMED 1995-09-05 00:00:00 NR 6.20000 137.000 main 788 784 O_____________ jtwc_wp WP161995 6.20000 137.000 20 -1 11 282
1995247N05144 1995 60 WP MM NOT_NAMED 1995-09-05 03:00:00 NR 6.29986 136.500 main 790 788 P_____________ WP161995 6.29986 136.500 20 -1 10 281
1995247N05144 1995 60 WP MM NOT_NAMED 1995-09-05 06:00:00 NR 6.40000 136.000 main 796 795 O_____________ jtwc_wp WP161995 6.40000 136.000 20 -1 11 283
1995247N05144 1995 60 WP MM NOT_NAMED 1995-09-05 09:00:00 NR 6.55003 135.400 main 818 815 P_____________ WP161995 6.55003 135.400 20 -1 12 284
1995247N05144 1995 60 WP MM NOT_NAMED 1995-09-05 12:00:00 NR 6.70000 134.800 main 820 794 O_____________ jtwc_wp WP161995 6.70000 134.800 20 -1 11 283
1995247N05144 1995 60 WP MM NOT_NAMED 1995-09-05 15:00:00 NR 6.79223 134.330 main 786 750 P_____________ WP161995 6.79223 134.330 20 -1 10 281
1995247N05144 1995 60 WP MM NOT_NAMED 1995-09-05 18:00:00 NR 6.90000 133.800 main 750 702 O_____________ jtwc_wp WP161995 6.90000 133.800 20 -1 14 283
1995247N05144 1995 60 WP MM NOT_NAMED 1995-09-05 21:00:00 NR 7.09277 133.000 main 702 618 P_____________ WP161995 7.09277 133.000 20 -1 16 284
1995247N05144 1995 60 WP MM NOT_NAMED 1995-09-06 00:00:00 NR 7.30000 132.200 main 618 562 O_____________ jtwc_wp WP161995 7.30000 132.200 20 -1 14 285
1995247N05144 1995 60 WP MM NOT_NAMED 1995-09-06 03:00:00 NR 7.44968 131.677 main 562 507 P_____________ WP161995 7.44968 131.677 20 -1 10 287
1995247N05144 1995 60 WP MM NOT_NAMED 1995-09-06 06:00:00 NR 7.60000 131.200 main 507 441 O_____________ jtwc_wp WP161995 7.60000 131.200 20 -1 12 288
1995247N05144 1995 60 WP MM NOT_NAMED 1995-09-06 09:00:00 NR 7.80750 130.573 main 441 365 P_____________ WP161995 7.80750 130.573 20 -1 14 287
1995247N05144 1995 60 WP MM NOT_NAMED 1995-09-06 12:00:00 NR 8.00000 129.900 main 365 301 O_____________ jtwc_wp WP161995 8.00000 129.900 20 -1 13 283
1995247N05144 1995 60 WP MM NOT_NAMED 1995-09-06 15:00:00 NR 8.10736 129.257 main 301 227 P_____________ WP161995 8.10736 129.257 20 -1 13 279
1995247N05144 1995 60 WP MM NOT_NAMED 1995-09-06 18:00:00 NR 8.20000 128.600 main 227 158 O_____________ jtwc_wp WP161995 8.20000 128.600 20 -1 14 279
1995247N05144 1995 60 WP MM NOT_NAMED 1995-09-06 21:00:00 NR 8.32742 127.907 main 158 90 P_____________ WP161995 8.32742 127.907 20 -1 14 282
1995247N05144 1995 60 WP MM NOT_NAMED 1995-09-07 00:00:00 NR 8.50000 127.200 main 90 24 O_____________ jtwc_wp WP161995 8.50000 127.200 20 -1 14 286
1995247N05144 1995 60 WP MM NOT_NAMED 1995-09-07 03:00:00 NR 8.73483 126.507 main 24 0 P_____________ WP161995 8.73483 126.507 17 -1 15 290
1995247N05144 1995 60 WP MM NOT_NAMED 1995-09-07 06:00:00 NR 9.00000 125.800 main 0 0 O_____________ jtwc_wp WP161995 9.00000 125.800 15 -1 15 290
1995247N05144 1995 60 WP MM NOT_NAMED 1995-09-07 09:00:00 NR 9.25739 125.057 main 35 11 P_____________ WP161995 9.25739 125.057 15 -1 16 289
1995247N05144 1995 60 WP MM NOT_NAMED 1995-09-07 12:00:00 NR 9.50000 124.300 main 11 0 O_____________ jtwc_wp WP161995 9.50000 124.300 15 -1 15 287
1995247N05144 1995 60 WP MM NOT_NAMED 1995-09-07 15:00:00 NR 9.69968 123.572 main 10 0 P_____________ WP161995 9.69968 123.572 15 -1 15 285
1995247N05144 1995 60 WP MM NOT_NAMED 1995-09-07 18:00:00 NR 9.90000 122.800 main 0 0 O_____________ jtwc_wp WP161995 9.90000 122.800 15 -1 17 284
1995247N05144 1995 60 WP MM NOT_NAMED 1995-09-07 21:00:00 NR 10.1124 121.922 main 33 24 P_____________ WP161995 10.1124 121.922 17 -1 18 286
1995247N05144 1995 60 WP MM NOT_NAMED 1995-09-08 00:00:00 NR 10.4000 121.000 main 98 64 O_____________ jtwc_wp WP161995 10.4000 121.000 20 -1 19 293
1995247N05144 1995 60 WP MM NOT_NAMED 1995-09-08 03:00:00 NR 10.8571 120.115 main 55 0 P_____________ WP161995 10.8571 120.115 20 -1 20 297
1995247N05144 1995 60 WP MM NOT_NAMED 1995-09-08 06:00:00 NR 11.3000 119.200 main 24 24 O_____________ jtwc_wp WP161995 11.3000 119.200 20 -1 20 290
1995247N05144 1995 60 WP MM NOT_NAMED 1995-09-08 09:00:00 NR 11.5449 118.200 main 135 135 P_____________ WP161995 11.5449 118.200 22 -1 20 282
1995247N05144 1995 60 WP MM NOT_NAMED 1995-09-08 12:00:00 NR 11.7000 117.200 main 246 246 O_____________ jtwc_wp WP161995 11.7000 117.200 25 -1 19 279
1995247N05144 1995 60 WP MM NOT_NAMED 1995-09-08 15:00:00 NR 11.8496 116.277 main 332 332 P_____________ WP161995 11.8496 116.277 25 -1 18 280
1995247N05144 1995 60 WP MM NOT_NAMED 1995-09-08 18:00:00 NR 12.0000 115.400 main 408 408 O_____________ jtwc_wp WP161995 12.0000 115.400 25 -1 18 281
1995247N05144 1995 60 WP MM NOT_NAMED 1995-09-08 21:00:00 NR 12.1849 114.512 main 492 456 P_____________ WP161995 12.1849 114.512 22 -1 18 289
1995247N05144 1995 60 WP MM NOT_NAMED 1995-09-09 00:00:00 NR 12.5800 113.660 main 456 390 O__O__________ jtwc_wp WP161995 12.4000 113.700 20 -1 13.3000 113.500 TD 25 1005 16 295
1995247N05144 1995 60 WP MM NOT_NAMED 1995-09-09 03:00:00 NR 12.8515 113.080 main 390 347 P__P__________ WP161995 12.6497 112.998 20 -1 13.2551 113.245 TD 25 1005 11 295
1995247N05144 1995 60 WP MM NOT_NAMED 1995-09-09 06:00:00 NR 13.0286 112.657 main 347 304 O__O__________ jtwc_wp WP161995 12.9000 112.400 20 -1 13.2000 113.000 TD 25 1005 8 290
1995247N05144 1995 60 WP MM NOT_NAMED 1995-09-09 09:00:00 NR 13.1286 112.310 main 304 273 P__P__________ WP161995 13.1224 111.855 20 -1 13.1349 112.765 TD 25 1005 7 284
1995247N05144 1995 60 WP MM NOT_NAMED 1995-09-09 12:00:00 NR 13.2000 111.950 main 273 231 O__O__________ jtwc_wp WP161995 13.3000 111.400 20 -1 13.1000 112.500 TD 25 1005 7 282
1995247N05144 1995 60 WP MM NOT_NAMED 1995-09-09 15:00:00 NR 13.2749 111.596 main 231 200 P__P__________ WP161995 13.4224 111.005 20 -1 13.1274 112.187 TD 25 1005 7 282
1995247N05144 1995 60 WP MM NOT_NAMED 1995-09-09 18:00:00 NR 13.3500 111.250 main 202 161 O__O__________ jtwc_wp WP161995 13.5000 110.700 20 -1 13.2000 111.800 TD 25 1005 7 281
1995247N05144 1995 60 WP MM NOT_NAMED 1995-09-09 21:00:00 NR 13.4100 110.892 main 161 136 P__P__________ WP161995 13.5424 110.470 22 -1 13.2776 111.315 TD 25 1005 7 282
1995247N05144 1995 60 WP MM NOT_NAMED 1995-09-10 00:00:00 NR 13.5000 110.550 main 136 97 O__O__________ jtwc_wp WP161995 13.6000 110.300 25 -1 13.4000 110.800 TD 25 1005 7 291
1995247N05144 1995 60 WP MM NOT_NAMED 1995-09-10 03:00:00 NR 13.6563 110.224 main 97 75 P__P__________ WP161995 13.7500 110.143 27 -1 13.5625 110.305 TD 25 1005 7 302
1995247N05144 1995 60 WP MM NOT_NAMED 1995-09-10 06:00:00 NR 13.8571 109.957 main 75 53 O__O__________ jtwc_wp WP161995 13.9000 110.000 30 -1 13.8000 109.900 TD 25 1005 6 309
1995247N05144 1995 60 WP MM NOT_NAMED 1995-09-10 09:00:00 NR 14.0083 109.779 main 55 44 P__P__________ WP161995 13.9500 109.842 30 -1 14.1249 109.653 TD 25 1005 4 310
1995247N05144 1995 60 WP MM NOT_NAMED 1995-09-10 12:00:00 NR 14.1000 109.660 main 48 39 O__O__________ jtwc_wp WP161995 14.0000 109.700 30 -1 14.5000 109.500 TD 25 1005 2 304
1995247N05144 1995 60 WP MM NOT_NAMED 1995-09-10 15:00:00 NR 14.1350 109.585 main 39 34 P_____________ WP161995 14.1350 109.585 27 -1 TD 3 322
1995247N05144 1995 60 WP MM NOT_NAMED 1995-09-10 18:00:00 NR 14.3000 109.500 main 39 39 O_____________ jtwc_wp WP161995 14.3000 109.500 25 -1 3 341
1995247N05144 1995 60 WP MM NOT_NAMED 1995-09-10 21:00:00 NR 14.4499 109.472 main 43 32 P_____________ WP161995 14.4499 109.472 25 -1 3 343
1995247N05144 1995 60 WP MM NOT_NAMED 1995-09-11 00:00:00 NR 14.6000 109.400 main 32 15 O_____________ jtwc_wp WP161995 14.6000 109.400 25 -1 4 325
1995247N05144 1995 60 WP MM NOT_NAMED 1995-09-11 03:00:00 NR 14.7723 109.233 main 15 0 P_____________ WP161995 14.7723 109.233 22 -1 6 302
1995247N05144 1995 60 WP MM NOT_NAMED 1995-09-11 06:00:00 NR 14.9000 108.900 main 0 0 O_____________ jtwc_wp WP161995 14.9000 108.900 20 -1 8 282
1995247N05144 1995 60 WP MM NOT_NAMED 1995-09-11 09:00:00 NR 14.9445 108.420 main 0 0 P_____________ WP161995 14.9445 108.420 17 -1 12 270
1995247N05144 1995 60 WP MM NOT_NAMED 1995-09-11 12:00:00 NR 14.9000 107.700 main 0 0 O_____________ jtwc_wp WP161995 14.9000 107.700 15 -1 17 264
1995247N05144 1995 60 WP MM NOT_NAMED 1995-09-11 15:00:00 NR 14.7739 106.722 main 0 0 P_____________ WP161995 14.7739 106.722 15 -1 21 262
1995247N05144 1995 60 WP MM NOT_NAMED 1995-09-11 18:00:00 NR 14.6000 105.600 main 0 O_____________ jtwc_wp WP161995 14.6000 105.600 15 -1 22 261

Digital Typhoon Data and Search

About IBTrACS Database

This database is a web-friendly format of International Best Track Archive for Climate Stewardship (IBTrACS), a global best track data archive curated by NOAA dating back to 1842.

Updated: 2021-11-26